Time;durP1;ratioP1;P1;durP2;ratioP2;P2;SDS_P1;SDS_P2;PMS_P1;PMS_P2;Temp;Humidity;BMP_temperature;BMP_pressure;BME280_temperature;BME280_humidity;BME280_pressure;Samples;Min_cycle;Max_cycle;Signal;HPM_P1;HPM_P2
2023/07/18 00:01:33;;;;;;;3.28;1.30;;;;;;;24.66;43.12;102184.19;5032305;28;20045;-33
2023/07/18 00:03:59;;;;;;;3.25;1.65;;;;;;;24.65;43.04;102175.22;5034939;28;20052;-33
2023/07/18 00:06:26;;;;;;;3.60;1.70;;;;;;;24.62;43.00;102173.69;5035554;28;20063;-33
2023/07/18 00:08:54;;;;;;;3.55;1.42;;;;;;;24.63;42.79;102174.53;5033244;28;20045;-32
2023/07/18 00:11:22;;;;;;;3.28;1.60;;;;;;;24.61;42.61;102171.16;5032207;28;20053;-33
2023/07/18 00:13:49;;;;;;;4.07;1.52;;;;;;;24.60;42.96;102166.72;5032808;28;20053;-33
2023/07/18 00:16:15;;;;;;;2.80;1.52;;;;;;;24.60;43.17;102170.31;5028557;28;20119;-33
2023/07/18 00:18:42;;;;;;;2.65;1.45;;;;;;;24.59;42.73;102173.16;5029289;28;20409;-32
2023/07/18 00:21:10;;;;;;;3.70;1.42;;;;;;;24.58;42.81;102169.59;5029178;28;20156;-33
2023/07/18 00:23:36;;;;;;;2.75;1.20;;;;;;;24.57;43.08;102167.06;5029269;28;20037;-33
2023/07/18 00:26:03;;;;;;;4.07;1.70;;;;;;;24.56;43.40;102168.94;5030938;28;20433;-33
2023/07/18 00:28:29;;;;;;;2.60;1.38;;;;;;;24.56;43.21;102176.19;5031904;28;20046;-32
2023/07/18 00:30:56;;;;;;;3.65;1.80;;;;;;;24.54;43.15;102173.66;5033839;28;20052;-33
2023/07/18 00:33:23;;;;;;;3.55;1.20;;;;;;;24.54;43.01;102173.66;5032178;28;20437;-32
2023/07/18 00:35:50;;;;;;;2.78;1.33;;;;;;;24.53;43.49;102174.69;5032612;28;20045;-32
2023/07/18 00:38:17;;;;;;;2.63;1.30;;;;;;;24.53;42.72;102177.38;5030170;28;20042;-33
2023/07/18 00:40:47;;;;;;;3.65;1.65;;;;;;;24.51;42.71;102168.56;5028636;28;20586;-32
2023/07/18 00:43:15;;;;;;;3.30;1.33;;;;;;;24.50;42.69;102172.28;5028110;28;20532;-33
2023/07/18 00:45:43;;;;;;;3.10;1.50;;;;;;;24.50;42.87;102168.72;5033357;28;20061;-32
2023/07/18 00:48:11;;;;;;;3.53;1.27;;;;;;;24.49;43.47;102167.03;5033754;28;20052;-32
2023/07/18 00:50:38;;;;;;;2.55;1.40;;;;;;;24.47;43.09;102172.59;5029300;28;20128;-33
2023/07/18 00:53:05;;;;;;;1.90;1.10;;;;;;;24.47;43.18;102175.31;5029452;28;20049;-33
2023/07/18 00:55:31;;;;;;;2.40;1.30;;;;;;;24.46;43.18;102170.91;5029454;28;20049;-33
2023/07/18 00:58:01;;;;;;;2.58;1.38;;;;;;;24.44;42.92;102172.94;5029896;28;20052;-33
2023/07/18 01:00:27;;;;;;;3.38;1.77;;;;;;;24.44;42.88;102164.81;5028597;28;20500;-33
2023/07/18 01:02:54;;;;;;;2.38;1.20;;;;;;;24.43;43.14;102167.69;5025862;28;20152;-33
2023/07/18 01:05:21;;;;;;;2.10;1.20;;;;;;;24.42;43.16;102164.13;5031162;28;20041;-34
2023/07/18 01:07:48;;;;;;;2.45;1.13;;;;;;;24.41;43.06;102162.44;5028573;28;20072;-32
2023/07/18 01:10:25;;;;;;;3.53;1.15;;;;;;;24.39;43.57;102169.88;5030621;28;20072;-32
2023/07/18 01:12:53;;;;;;;2.78;1.30;;;;;;;24.40;43.16;102176.97;5028012;28;20504;-33
2023/07/18 01:15:20;;;;;;;2.13;1.17;;;;;;;24.39;43.70;102169.88;5030290;28;20107;-32
2023/07/18 01:17:49;;;;;;;3.05;1.00;;;;;;;24.36;43.51;102165.63;5028652;28;20065;-33
2023/07/18 01:20:23;;;;;;;3.65;1.20;;;;;;;24.36;43.20;102167.44;5027650;28;20056;-33
2023/07/18 01:22:53;;;;;;;2.45;1.02;;;;;;;24.35;43.61;102163.06;5027793;28;20147;-33
2023/07/18 01:25:21;;;;;;;2.92;1.10;;;;;;;24.35;42.99;102168.47;5031115;28;20049;-33
2023/07/18 01:27:50;;;;;;;2.80;1.10;;;;;;;24.34;43.20;102164.91;5027222;28;20084;-33
2023/07/18 01:30:19;;;;;;;2.65;1.30;;;;;;;24.33;43.55;102165.09;5030694;28;20338;-33
2023/07/18 01:32:49;;;;;;;2.53;1.10;;;;;;;24.32;43.45;102160.66;5028507;28;20044;-33
2023/07/18 01:35:19;;;;;;;3.42;1.17;;;;;;;24.31;43.30;102159.81;5030013;28;20103;-33
2023/07/18 01:37:46;;;;;;;2.55;1.00;;;;;;;24.30;43.57;102163.53;5032287;28;20329;-33
2023/07/18 01:40:15;;;;;;;3.72;1.40;;;;;;;24.29;43.33;102158.31;5031221;28;20053;-32
2023/07/18 01:42:42;;;;;;;2.50;1.00;;;;;;;24.28;43.11;102160.16;5028692;28;20597;-32
2023/07/18 01:45:10;;;;;;;2.17;0.90;;;;;;;24.27;43.48;102160.31;5036796;28;20373;-33
2023/07/18 01:47:38;;;;;;;3.20;1.10;;;;;;;24.26;43.25;102153.19;5042864;28;20136;-33
2023/07/18 01:50:06;;;;;;;1.90;0.98;;;;;;;24.25;43.48;102154.22;5038720;28;20060;-33
2023/07/18 01:52:34;;;;;;;2.25;1.13;;;;;;;24.25;43.50;102148.81;5044109;28;20131;-33
2023/07/18 01:55:02;;;;;;;2.70;1.23;;;;;;;24.24;43.34;102155.22;5036029;28;20137;-33
2023/07/18 01:57:42;;;;;;;5.85;1.20;;;;;;;24.21;43.85;102148.28;5046519;28;20099;-33
2023/07/18 02:00:11;;;;;;;3.20;1.45;;;;;;;24.22;43.12;102143.69;5029882;28;20049;-33
2023/07/18 02:02:38;;;;;;;2.58;1.00;;;;;;;24.22;43.58;102143.69;5030843;28;20068;-32
2023/07/18 02:05:06;;;;;;;3.30;0.90;;;;;;;24.20;43.12;102138.47;5033622;28;20046;-33
2023/07/18 02:07:32;;;;;;;2.85;0.90;;;;;;;24.20;43.60;102140.28;5032863;28;20441;-33
2023/07/18 02:10:00;;;;;;;1.95;1.02;;;;;;;24.20;43.55;102140.28;5031908;28;20045;-33
2023/07/18 02:12:28;;;;;;;2.10;1.08;;;;;;;24.19;43.67;102135.88;5032178;28;20088;-32
2023/07/18 02:14:54;;;;;;;3.15;1.50;;;;;;;24.19;43.29;102133.19;5031636;28;20053;-32
2023/07/18 02:17:21;;;;;;;1.92;0.80;;;;;;;24.17;43.57;102135.22;5033481;28;20095;-33
2023/07/18 02:19:47;;;;;;;2.83;1.25;;;;;;;24.17;43.88;102137.94;5032942;28;20306;-33
2023/07/18 02:22:14;;;;;;;2.58;1.08;;;;;;;24.15;43.30;102138.06;5036329;28;20501;-33
2023/07/18 02:24:41;;;;;;;2.53;1.00;;;;;;;24.14;43.89;102131.81;5030065;28;20162;-32
2023/07/18 02:27:08;;;;;;;3.70;1.42;;;;;;;24.13;43.50;102127.41;5033863;28;20042;-33
2023/07/18 02:29:35;;;;;;;3.47;1.40;;;;;;;24.13;43.84;102130.13;5033731;28;20041;-33
2023/07/18 02:32:01;;;;;;;2.67;1.25;;;;;;;24.13;43.43;102135.53;5033520;28;20092;-33
2023/07/18 02:34:28;;;;;;;2.03;1.10;;;;;;;24.11;43.83;102137.53;5034364;28;20069;-32
2023/07/18 02:36:54;;;;;;;1.88;0.90;;;;;;;24.11;43.56;102131.28;5030340;28;20057;-32
2023/07/18 02:39:21;;;;;;;4.85;1.27;;;;;;;24.10;43.28;102127.72;5031954;28;20073;-33
2023/07/18 02:41:48;;;;;;;2.97;1.00;;;;;;;24.10;43.98;102133.16;5025907;28;20532;-33
2023/07/18 02:44:15;;;;;;;1.40;1.00;;;;;;;24.09;43.57;102115.22;5030920;28;20061;-34
2023/07/18 02:46:42;;;;;;;1.90;1.05;;;;;;;24.08;44.00;102113.53;5030378;28;20559;-34
2023/07/18 02:49:08;;;;;;;4.28;1.15;;;;;;;24.07;44.05;102114.50;5031912;28;20400;-34
2023/07/18 02:51:35;;;;;;;2.85;1.20;;;;;;;24.06;43.75;102118.22;5032209;28;20049;-34
2023/07/18 02:54:02;;;;;;;2.38;1.00;;;;;;;24.07;43.58;102119.06;5035506;28;20075;-33
2023/07/18 02:56:29;;;;;;;2.53;0.98;;;;;;;24.05;43.63;102121.13;5032256;28;20049;-32
2023/07/18 02:58:56;;;;;;;2.60;1.00;;;;;;;24.04;44.06;102124.81;5032842;28;20436;-33
2023/07/18 03:01:23;;;;;;;1.55;0.80;;;;;;;24.04;43.48;102119.41;5031515;28;20060;-33
2023/07/18 03:03:49;;;;;;;1.77;0.80;;;;;;;24.03;43.67;102126.69;5030403;28;20053;-32
2023/07/18 03:06:16;;;;;;;1.70;0.95;;;;;;;24.03;43.37;102123.97;5032039;28;20055;-33
2023/07/18 03:08:43;;;;;;;3.17;1.38;;;;;;;24.00;43.34;102124.31;5032039;28;20054;-32
2023/07/18 03:11:09;;;;;;;3.20;1.10;;;;;;;24.01;43.97;102126.00;5035668;28;20049;-33
2023/07/18 03:13:36;;;;;;;2.45;1.20;;;;;;;24.00;43.68;102124.31;5034793;28;20103;-32
2023/07/18 03:16:04;;;;;;;3.17;1.13;;;;;;;24.01;44.08;102136.00;5034162;28;20468;-32
2023/07/18 03:18:31;;;;;;;1.40;1.00;;;;;;;23.98;43.46;102137.16;5035974;28;20396;-32
2023/07/18 03:20:58;;;;;;;2.17;0.98;;;;;;;23.97;44.02;102140.88;5039680;28;20126;-34
2023/07/18 03:23:25;;;;;;;2.38;0.88;;;;;;;23.97;43.56;102140.88;5039778;28;20053;-32
2023/07/18 03:25:52;;;;;;;2.20;0.88;;;;;;;23.96;43.39;102143.72;5042689;28;20087;-33
2023/07/18 03:28:19;;;;;;;2.25;0.95;;;;;;;23.94;43.76;102138.50;5044281;28;20572;-33
2023/07/18 03:30:46;;;;;;;3.33;1.00;;;;;;;23.95;44.04;102153.72;5039267;28;20057;-32
2023/07/18 03:33:15;;;;;;;2.42;1.10;;;;;;;23.94;43.93;102140.34;5038434;28;20076;-33
2023/07/18 03:35:42;;;;;;;1.90;0.98;;;;;;;23.93;44.02;102150.34;5037998;28;20490;-33
2023/07/18 03:38:08;;;;;;;0.98;0.63;;;;;;;23.93;43.58;102146.78;5039329;28;20045;-32
2023/07/18 03:40:35;;;;;;;1.77;0.70;;;;;;;23.91;43.97;102141.50;5043538;28;20056;-32
2023/07/18 03:43:02;;;;;;;1.58;0.77;;;;;;;23.91;44.22;102135.25;5037524;28;20159;-32
2023/07/18 03:45:28;;;;;;;2.72;0.88;;;;;;;23.91;43.71;102129.84;5034073;28;20045;-33
2023/07/18 03:47:55;;;;;;;1.50;0.70;;;;;;;23.88;43.97;102137.28;5039585;28;20053;-33
2023/07/18 03:50:23;;;;;;;3.00;0.90;;;;;;;23.88;43.50;102131.03;5043511;28;20318;-33
2023/07/18 03:52:50;;;;;;;1.25;0.80;;;;;;;23.87;43.81;102130.16;5030013;28;20676;-33
2023/07/18 03:55:17;;;;;;;1.25;0.60;;;;;;;23.86;43.56;102139.28;5030321;28;20095;-32
2023/07/18 03:57:44;;;;;;;2.13;0.90;;;;;;;23.85;43.79;102137.59;5030859;28;20108;-33
2023/07/18 04:00:17;;;;;;;2.85;1.05;;;;;;;23.85;43.91;102143.03;5030894;28;20065;-33
2023/07/18 04:02:48;;;;;;;1.73;0.90;;;;;;;23.85;43.97;102144.88;5030369;28;20049;-33
2023/07/18 04:05:16;;;;;;;2.58;1.05;;;;;;;23.85;43.96;102142.19;5031102;28;20057;-32
2023/07/18 04:07:44;;;;;;;1.95;0.73;;;;;;;23.83;44.05;102131.47;5029690;28;20437;-33
2023/07/18 04:10:12;;;;;;;2.10;0.88;;;;;;;23.82;44.05;102127.09;5025263;28;20087;-33
2023/07/18 04:12:40;;;;;;;1.60;0.95;;;;;;;23.82;44.36;102116.25;5029974;28;20057;-33
2023/07/18 04:15:07;;;;;;;4.07;1.40;;;;;;;23.82;44.19;102118.13;5032769;28;20045;-34
2023/07/18 04:17:35;;;;;;;3.83;1.48;;;;;;;23.82;44.08;102126.25;5032642;28;20050;-33
2023/07/18 04:20:03;;;;;;;4.85;1.42;;;;;;;23.81;44.10;102127.25;5034981;28;20053;-33
2023/07/18 04:22:30;;;;;;;3.22;1.85;;;;;;;23.81;43.86;102119.97;5026777;28;20465;-32
2023/07/18 04:24:57;;;;;;;11.18;2.35;;;;;;;23.81;44.31;102125.41;5024753;28;20064;-33
2023/07/18 04:27:26;;;;;;;4.22;2.03;;;;;;;23.80;44.25;102123.72;5025103;28;20072;-34
2023/07/18 04:29:53;;;;;;;6.82;2.10;;;;;;;23.81;44.15;102128.09;5034383;28;20041;-33
2023/07/18 04:32:20;;;;;;;4.20;2.10;;;;;;;23.81;43.77;102122.69;5033209;28;20077;-33
2023/07/18 04:34:47;;;;;;;5.35;1.73;;;;;;;23.81;44.31;102119.97;5033406;28;20084;-33
2023/07/18 04:37:14;;;;;;;3.78;1.52;;;;;;;23.81;44.16;102129.97;5037739;28;20380;-33
2023/07/18 04:39:40;;;;;;;3.97;2.00;;;;;;;23.81;44.19;102121.84;5038617;28;20042;-33
2023/07/18 04:42:07;;;;;;;5.53;1.85;;;;;;;23.81;44.52;102124.56;5032765;28;20045;-33
2023/07/18 04:44:34;;;;;;;6.80;2.28;;;;;;;23.82;44.21;102127.09;5038300;28;20605;-33
2023/07/18 04:47:00;;;;;;;5.60;1.98;;;;;;;23.81;43.68;102116.44;5038103;28;20057;-33
2023/07/18 04:49:29;;;;;;;5.00;1.92;;;;;;;23.82;44.34;102115.41;5036111;28;20076;-32
2023/07/18 04:51:55;;;;;;;2.45;1.50;;;;;;;23.83;44.36;102117.09;5037131;28;20057;-33
2023/07/18 04:54:22;;;;;;;4.38;2.00;;;;;;;23.84;44.28;102113.38;5034391;28;20064;-34
2023/07/18 04:56:53;;;;;;;3.20;1.50;;;;;;;23.83;43.61;102096.28;5035579;28;20140;-35
2023/07/18 04:59:20;;;;;;;3.25;1.40;;;;;;;23.86;43.74;102105.94;5035217;28;20091;-33
2023/07/18 05:01:51;;;;;;;3.45;1.48;;;;;;;23.85;43.53;102104.25;5039022;28;20057;-34
2023/07/18 05:04:17;;;;;;;6.05;1.73;;;;;;;23.87;43.77;102105.78;5035106;28;20049;-36
2023/07/18 05:06:45;;;;;;;4.57;1.40;;;;;;;23.88;43.98;102112.06;5033334;28;20103;-33
2023/07/18 05:09:12;;;;;;;3.67;1.55;;;;;;;23.89;44.00;102106.47;5033346;28;20798;-34
2023/07/18 05:11:38;;;;;;;4.00;1.80;;;;;;;23.91;44.14;102102.75;5033627;28;20049;-33
2023/07/18 05:14:05;;;;;;;3.40;1.30;;;;;;;23.92;43.75;102099.03;5041050;28;20049;-33
2023/07/18 05:16:32;;;;;;;3.78;1.48;;;;;;;23.94;43.96;102097.03;5037179;28;20048;-34
2023/07/18 05:18:58;;;;;;;3.20;1.40;;;;;;;23.95;43.90;102099.56;5039043;28;20054;-33
2023/07/18 05:21:25;;;;;;;3.10;1.30;;;;;;;23.97;43.97;102102.13;5032181;28;20046;-34
2023/07/18 05:23:51;;;;;;;5.00;1.23;;;;;;;24.00;43.65;102085.53;5036539;28;20140;-34
2023/07/18 05:26:18;;;;;;;4.25;1.42;;;;;;;24.01;43.93;102096.22;5034724;28;20076;-32
2023/07/18 05:28:44;;;;;;;3.00;1.60;;;;;;;24.03;43.72;102096.88;5035256;28;20053;-32
2023/07/18 05:31:11;;;;;;;2.10;1.25;;;;;;;24.05;43.33;102092.16;5033342;28;20069;-33
2023/07/18 05:33:38;;;;;;;3.72;1.60;;;;;;;24.05;42.96;102094.88;5036908;28;20060;-32
2023/07/18 05:36:04;;;;;;;2.13;1.30;;;;;;;24.06;43.01;102088.44;5036484;28;20643;-32
2023/07/18 05:38:31;;;;;;;2.65;1.30;;;;;;;24.06;43.34;102091.16;5037123;28;20049;-33
2023/07/18 05:40:58;;;;;;;4.65;1.80;;;;;;;24.06;43.55;102090.31;5030203;28;20077;-32
2023/07/18 05:43:24;;;;;;;3.10;1.33;;;;;;;24.05;43.47;102092.16;5028610;28;20077;-32
2023/07/18 05:45:51;;;;;;;4.28;1.67;;;;;;;24.05;43.29;102104.88;5035310;28;20503;-32
2023/07/18 05:48:18;;;;;;;4.05;1.50;;;;;;;24.06;43.68;102099.28;5030652;28;20356;-34
2023/07/18 05:50:44;;;;;;;3.08;1.20;;;;;;;24.05;43.08;102094.88;5031848;28;20073;-32
2023/07/18 05:53:11;;;;;;;3.90;1.30;;;;;;;24.06;43.73;102101.13;5032090;28;20085;-33
2023/07/18 05:55:38;;;;;;;3.97;2.15;;;;;;;24.06;43.62;102099.28;5030805;28;20095;-32
2023/07/18 05:58:04;;;;;;;3.38;1.67;;;;;;;24.07;43.85;102100.97;5030947;28;20054;-32
2023/07/18 06:00:31;;;;;;;3.33;1.67;;;;;;;24.07;43.10;102100.97;5030263;28;20073;-32
2023/07/18 06:02:58;;;;;;;2.58;1.13;;;;;;;24.09;43.71;102108.94;5029964;28;20111;-33
2023/07/18 06:05:25;;;;;;;2.70;1.20;;;;;;;24.10;43.26;102106.06;5032091;28;20515;-32
2023/07/18 06:07:52;;;;;;;4.25;1.30;;;;;;;24.10;43.38;102108.78;5032210;28;20081;-33
2023/07/18 06:10:18;;;;;;;4.47;1.40;;;;;;;24.11;43.50;102118.59;5032970;28;20103;-32
2023/07/18 06:12:45;;;;;;;3.78;1.45;;;;;;;24.11;43.52;102110.47;5033693;28;20049;-33
2023/07/18 06:15:11;;;;;;;3.60;1.67;;;;;;;24.12;43.09;102109.47;5033740;28;20061;-32
2023/07/18 06:17:38;;;;;;;2.28;1.17;;;;;;;24.12;43.05;102106.75;5031684;28;20050;-32
2023/07/18 06:20:14;;;;;;;1.85;1.00;;;;;;;24.12;43.58;102114.88;5032952;28;20077;-32
2023/07/18 06:22:41;;;;;;;3.55;1.30;;;;;;;24.12;43.33;102116.72;5032386;28;20057;-32
2023/07/18 06:25:08;;;;;;;4.35;1.40;;;;;;;24.10;43.72;102106.06;5032719;28;20060;-32
2023/07/18 06:27:35;;;;;;;5.07;1.40;;;;;;;24.11;43.18;102115.88;5030344;28;20045;-32
2023/07/18 06:30:02;;;;;;;3.35;1.30;;;;;;;24.11;43.42;102115.88;5032793;28;20049;-33
2023/07/18 06:32:30;;;;;;;3.50;1.15;;;;;;;24.11;43.33;102110.47;5030619;28;20053;-32
2023/07/18 06:34:56;;;;;;;4.68;1.75;;;;;;;24.11;43.70;102121.28;5034214;28;20053;-33
2023/07/18 06:37:31;;;;;;;2.17;1.48;;;;;;;24.11;43.62;102118.59;5028774;28;20041;-32
2023/07/18 06:39:58;;;;;;;3.35;1.02;;;;;;;24.11;43.51;102121.28;5031552;28;20112;-33
2023/07/18 06:42:25;;;;;;;5.22;1.60;;;;;;;24.11;43.69;102113.16;5033662;28;20049;-32
2023/07/18 06:44:51;;;;;;;3.17;1.50;;;;;;;24.12;43.53;102114.00;5036251;28;20099;-33
2023/07/18 06:47:18;;;;;;;2.95;1.10;;;;;;;24.11;43.49;102117.75;5033688;28;20092;-32
2023/07/18 06:49:45;;;;;;;2.70;1.42;;;;;;;24.12;43.35;102114.00;5031961;28;20046;-32
2023/07/18 06:52:11;;;;;;;5.07;1.30;;;;;;;24.12;43.65;102122.13;5029617;28;20088;-33
2023/07/18 06:54:38;;;;;;;3.53;1.48;;;;;;;24.12;43.81;102123.00;5030084;28;20052;-32
2023/07/18 06:57:05;;;;;;;5.70;1.95;;;;;;;24.11;43.88;102134.84;5030731;28;20056;-32
2023/07/18 06:59:32;;;;;;;4.38;1.70;;;;;;;24.12;43.90;102122.13;5029094;28;20046;-32
2023/07/18 07:01:58;;;;;;;4.35;1.48;;;;;;;24.11;43.76;102121.28;5030488;28;20049;-32
2023/07/18 07:04:25;;;;;;;5.63;1.25;;;;;;;24.12;43.64;102123.00;5032367;28;20045;-32
2023/07/18 07:06:51;;;;;;;4.13;1.40;;;;;;;24.11;43.63;102115.88;5034033;28;20128;-32
2023/07/18 07:09:18;;;;;;;3.72;1.33;;;;;;;24.11;44.12;102121.28;5047282;28;20081;-32
2023/07/18 07:11:45;;;;;;;4.20;1.23;;;;;;;24.11;43.84;102115.03;5030373;28;20396;-32
2023/07/18 07:14:11;;;;;;;5.10;1.77;;;;;;;24.10;43.69;102116.06;5031205;28;20041;-32
2023/07/18 07:16:39;;;;;;;4.65;1.50;;;;;;;24.10;44.42;102121.47;5029383;28;20064;-33
2023/07/18 07:19:06;;;;;;;4.97;1.83;;;;;;;24.10;44.30;102110.63;5031864;28;20049;-32
2023/07/18 07:21:33;;;;;;;3.90;1.48;;;;;;;24.10;44.39;102116.06;5032211;28;20053;-32
2023/07/18 07:24:00;;;;;;;5.57;1.70;;;;;;;24.11;44.06;102115.88;5032012;28;20062;-32
2023/07/18 07:26:27;;;;;;;6.30;2.35;;;;;;;24.12;43.91;102112.19;5034680;28;20053;-33
2023/07/18 07:28:53;;;;;;;3.92;1.60;;;;;;;24.12;44.15;102111.31;5031825;28;20088;-33
2023/07/18 07:31:20;;;;;;;4.05;1.40;;;;;;;24.13;43.91;102115.72;5040501;28;20041;-34
2023/07/18 07:33:47;;;;;;;5.05;1.52;;;;;;;24.12;43.85;102101.34;5040501;28;20054;-33
2023/07/18 07:36:15;;;;;;;6.40;1.52;;;;;;;24.13;44.08;102096.78;5031422;28;20341;-33
2023/07/18 07:38:41;;;;;;;4.18;1.40;;;;;;;24.14;44.06;102098.47;5028801;28;20416;-34
2023/07/18 07:41:08;;;;;;;6.35;1.73;;;;;;;24.15;44.63;102097.44;5031667;28;20045;-33
2023/07/18 07:43:34;;;;;;;2.70;1.40;;;;;;;24.16;44.15;102098.28;5041317;28;20437;-34
2023/07/18 07:46:01;;;;;;;4.88;1.48;;;;;;;24.17;44.52;102097.28;5031378;28;20107;-33
2023/07/18 07:48:28;;;;;;;4.35;1.60;;;;;;;24.18;44.21;102096.28;5039901;28;20148;-33
2023/07/18 07:50:55;;;;;;;6.95;1.40;;;;;;;24.19;43.96;102098.81;5030343;28;20045;-33
2023/07/18 07:53:23;;;;;;;5.32;1.75;;;;;;;24.20;44.33;102099.66;5040080;28;20171;-33
2023/07/18 07:55:49;;;;;;;5.78;1.60;;;;;;;24.21;44.09;102096.78;5029849;28;20049;-32
2023/07/18 07:58:16;;;;;;;3.42;1.30;;;;;;;24.23;44.53;102088.50;5031335;28;20077;-32
2023/07/18 08:00:42;;;;;;;6.57;1.52;;;;;;;24.24;43.97;102088.34;5028446;28;20084;-32
2023/07/18 08:03:09;;;;;;;7.80;1.95;;;;;;;24.26;44.04;102090.88;5027362;28;20103;-32
2023/07/18 08:05:36;;;;;;;3.20;1.42;;;;;;;24.27;44.50;102088.00;5030319;28;20080;-32
2023/07/18 08:08:03;;;;;;;3.15;1.20;;;;;;;24.29;44.42;102085.13;5029353;28;20136;-32
2023/07/18 08:10:30;;;;;;;5.15;1.65;;;;;;;24.31;44.57;102086.66;5030706;28;20045;-33
2023/07/18 08:12:57;;;;;;;4.63;1.63;;;;;;;24.33;44.13;102078.38;5031086;28;20049;-32
2023/07/18 08:15:26;;;;;;;4.70;1.60;;;;;;;24.35;44.83;102076.34;5036519;28;20045;-33
2023/07/18 08:17:54;;;;;;;4.88;1.70;;;;;;;24.37;44.77;102077.03;5034140;28;20145;-32
2023/07/18 08:20:22;;;;;;;4.00;1.63;;;;;;;24.38;44.45;102079.59;5034973;28;20037;-32
2023/07/18 08:22:49;;;;;;;5.55;1.50;;;;;;;24.41;44.14;102085.72;5032837;28;20511;-32
2023/07/18 08:25:16;;;;;;;2.95;1.70;;;;;;;24.42;44.14;102082.81;5035226;28;20053;-32
2023/07/18 08:27:43;;;;;;;6.03;1.98;;;;;;;24.43;44.35;102079.09;5031260;28;20061;-32
2023/07/18 08:30:10;;;;;;;7.88;1.80;;;;;;;24.46;44.35;102086.06;5035967;28;20512;-33
2023/07/18 08:32:37;;;;;;;5.80;1.90;;;;;;;24.46;44.45;102081.47;5029263;28;20049;-32
2023/07/18 08:35:05;;;;;;;5.32;1.65;;;;;;;24.47;44.28;102080.47;5028131;28;20053;-33
2023/07/18 08:37:31;;;;;;;6.15;1.98;;;;;;;24.48;44.50;102079.44;5033311;28;20045;-33
2023/07/18 08:39:58;;;;;;;5.53;1.73;;;;;;;24.50;44.82;102082.84;5033544;28;20056;-32
2023/07/18 08:42:27;;;;;;;7.50;2.30;;;;;;;24.52;44.61;102088.97;5031460;28;20500;-32
2023/07/18 08:44:54;;;;;;;4.55;1.40;;;;;;;24.51;44.76;102081.81;5033478;28;20469;-32
2023/07/18 08:47:26;;;;;;;5.00;1.50;;;;;;;24.52;44.98;102080.81;5031577;28;20657;-33
2023/07/18 08:49:53;;;;;;;5.13;1.98;;;;;;;24.53;44.36;102082.50;5032492;28;20049;-32
2023/07/18 08:52:20;;;;;;;5.95;1.67;;;;;;;24.55;44.80;102082.34;5033423;28;20076;-32
2023/07/18 08:54:47;;;;;;;6.25;1.95;;;;;;;24.57;44.61;102080.31;5032488;28;20101;-32
2023/07/18 08:57:18;;;;;;;3.67;1.92;;;;;;;24.57;44.94;102072.19;5037764;28;20049;-32
2023/07/18 08:59:46;;;;;;;4.15;1.60;;;;;;;24.58;44.76;102071.16;5039730;28;20058;-33
2023/07/18 09:02:12;;;;;;;8.18;1.83;;;;;;;24.59;44.61;102076.41;5035745;28;20045;-32
2023/07/18 09:04:39;;;;;;;8.77;2.25;;;;;;;24.62;44.25;102072.53;5042512;28;20056;-33
2023/07/18 09:07:06;;;;;;;4.03;1.50;;;;;;;24.63;44.92;102074.22;5036290;28;20116;-32
2023/07/18 09:09:35;;;;;;;3.95;1.60;;;;;;;24.63;44.66;102068.78;5035750;28;20053;-31
2023/07/18 09:12:05;;;;;;;4.38;1.83;;;;;;;24.65;44.09;102057.81;5034917;28;20037;-31
2023/07/18 09:14:33;;;;;;;6.40;1.70;;;;;;;24.66;44.38;102064.91;5036474;28;20041;-31
2023/07/18 09:17:03;;;;;;;5.85;1.63;;;;;;;24.67;44.30;102061.19;5038266;28;20487;-31
2023/07/18 09:19:37;;;;;;;6.70;1.42;;;;;;;24.69;44.40;102060.00;5039033;28;20049;-32
2023/07/18 09:22:04;;;;;;;;;;;;;;;24.70;44.47;102050.00;5036483;28;20049;-31
2023/07/18 09:24:32;;;;;;;5.57;1.70;;;;;;;24.75;44.27;102063.88;5041696;28;20015;-32
2023/07/18 09:26:59;;;;;;;3.90;1.52;;;;;;;24.76;43.56;102054.72;5036656;28;20079;-31
2023/07/18 09:29:25;;;;;;;3.40;1.50;;;;;;;24.77;44.48;102051.03;5034541;28;20049;-32
2023/07/18 09:31:53;;;;;;;2.83;1.20;;;;;;;24.80;43.80;102042.53;5031925;28;20395;-31
2023/07/18 09:34:20;;;;;;;4.55;1.58;;;;;;;24.82;44.07;102045.94;5037163;28;20097;-31
2023/07/18 09:36:58;;;;;;;5.65;1.60;;;;;;;24.85;44.09;102037.47;5036657;28;20487;-31
2023/07/18 09:39:27;;;;;;;4.50;1.60;;;;;;;24.90;43.85;102036.94;5037310;28;20056;-31
2023/07/18 09:41:55;;;;;;;4.70;1.55;;;;;;;24.93;43.58;102045.59;5040567;28;20052;-34
2023/07/18 09:44:25;;;;;;;3.55;1.50;;;;;;;24.98;43.80;102043.22;5039750;28;20042;-34
2023/07/18 09:47:00;;;;;;;5.10;1.95;;;;;;;25.02;43.76;102041.00;5036576;28;20128;-34
2023/07/18 09:49:29;;;;;;;4.10;1.55;;;;;;;25.05;44.02;102044.22;5033279;28;20137;-34
2023/07/18 09:52:04;;;;;;;4.40;1.52;;;;;;;25.09;43.73;102042.06;5035971;28;20103;-34
2023/07/18 09:54:32;;;;;;;4.82;1.38;;;;;;;25.13;43.79;102050.66;5034969;28;20422;-34
2023/07/18 09:57:09;;;;;;;3.08;1.00;;;;;;;25.15;44.19;102046.78;5030241;28;20057;-34
2023/07/18 09:59:38;;;;;;;3.58;1.30;;;;;;;25.17;43.75;102049.34;5030390;28;20077;-34
2023/07/18 10:02:10;;;;;;;5.55;1.63;;;;;;;25.18;43.89;102043.72;5027522;28;20739;-33
2023/07/18 10:04:38;;;;;;;4.85;1.80;;;;;;;25.22;44.11;102041.53;5028128;28;20050;-34
2023/07/18 10:07:08;;;;;;;4.18;1.42;;;;;;;25.23;43.65;102041.34;5030761;28;20136;-34
2023/07/18 10:09:36;;;;;;;5.63;1.40;;;;;;;25.25;44.13;102033.03;5031674;28;20168;-34
2023/07/18 10:12:03;;;;;;;5.47;1.70;;;;;;;25.28;44.13;102027.25;5030640;28;20042;-34
2023/07/18 10:14:30;;;;;;;6.35;1.92;;;;;;;25.29;43.82;102037.09;5032793;28;20045;-35
2023/07/18 10:17:05;;;;;;;3.40;1.30;;;;;;;25.30;43.71;102027.94;5031368;28;20076;-34
2023/07/18 10:19:47;;;;;;;3.33;1.38;;;;;;;25.32;43.44;102028.59;5031514;28;20076;-34
2023/07/18 10:22:31;;;;;;;5.88;1.92;;;;;;;25.34;43.60;102026.56;5034986;28;20049;-34
2023/07/18 10:24:59;;;;;;;3.13;1.27;;;;;;;25.39;43.92;102017.91;5031616;28;20054;-34
2023/07/18 10:27:43;;;;;;;3.72;1.50;;;;;;;25.39;43.32;102013.31;5033733;28;20433;-34
2023/07/18 10:30:12;;;;;;;4.28;1.55;;;;;;;25.43;43.78;102009.22;5035714;28;20053;-33
2023/07/18 10:32:42;;;;;;;5.53;1.83;;;;;;;25.45;43.62;102012.63;5032305;28;20049;-34
2023/07/18 10:35:15;;;;;;;4.40;1.33;;;;;;;25.47;43.67;101999.72;5033703;28;20049;-34
2023/07/18 10:37:44;;;;;;;5.35;1.27;;;;;;;25.50;43.72;101995.81;5031036;28;20103;-31
2023/07/18 10:40:31;;;;;;;4.32;1.30;;;;;;;25.52;43.41;101991.88;5034422;28;20052;-34
2023/07/18 10:42:58;;;;;;;6.10;1.83;;;;;;;25.56;43.65;101984.25;5029617;28;20103;-34
2023/07/18 10:45:26;;;;;;;4.88;1.98;;;;;;;25.59;43.60;101992.03;5032285;28;20045;-34
2023/07/18 10:47:53;;;;;;;5.70;1.80;;;;;;;25.60;43.58;101985.56;5032714;28;20071;-35
2023/07/18 10:50:20;;;;;;;2.38;1.20;;;;;;;25.62;43.28;101988.97;5032723;28;20057;-34
2023/07/18 10:52:46;;;;;;;6.00;1.48;;;;;;;25.64;43.38;101988.78;5032063;28;20053;-34
2023/07/18 10:55:15;;;;;;;3.83;1.42;;;;;;;25.66;43.44;101981.34;5033788;28;20057;-34
2023/07/18 10:57:42;;;;;;;6.45;1.85;;;;;;;25.66;43.63;101976.75;5031541;28;20080;-34
2023/07/18 11:00:09;;;;;;;6.80;1.55;;;;;;;25.67;43.26;101981.13;5034501;28;20392;-31
2023/07/18 11:02:44;;;;;;;4.13;1.48;;;;;;;25.67;43.66;101974.88;5030747;28;20037;-32
2023/07/18 11:05:13;;;;;;;3.28;1.65;;;;;;;25.69;43.60;101980.94;5031161;28;20110;-32
2023/07/18 11:07:45;;;;;;;2.83;1.48;;;;;;;25.70;43.47;101977.25;5032008;28;20041;-33
2023/07/18 11:10:13;;;;;;;2.75;1.38;;;;;;;25.71;43.51;101973.50;5033253;28;20319;-35
2023/07/18 11:12:41;;;;;;;2.13;1.10;;;;;;;25.73;43.22;101982.28;5034016;28;20084;-34
2023/07/18 11:15:10;;;;;;;4.70;1.67;;;;;;;25.73;43.31;101966.88;5036496;28;20053;-34
2023/07/18 11:17:41;;;;;;;3.53;1.50;;;;;;;25.74;43.68;101963.13;5030099;28;20397;-34
2023/07/18 11:20:11;;;;;;;6.13;1.55;;;;;;;25.77;43.13;101953.75;5030794;28;20453;-35
2023/07/18 11:22:38;;;;;;;4.65;1.70;;;;;;;25.80;43.32;101950.72;5031325;28;20073;-34
2023/07/18 11:25:05;;;;;;;4.00;2.00;;;;;;;25.82;43.29;101949.53;5031931;28;20064;-35
2023/07/18 11:27:32;;;;;;;3.78;1.70;;;;;;;25.86;43.13;101949.19;5028523;28;20057;-34